createdAt,value
2019-03-20T00:00:03.125Z,1019.89
2019-03-20T00:01:03.070Z,1019.87
2019-03-20T00:02:03.030Z,1019.90
2019-03-20T00:03:02.950Z,1019.94
2019-03-20T00:04:02.891Z,1019.94
2019-03-20T00:05:02.836Z,1019.93
2019-03-20T00:06:02.785Z,1019.92
2019-03-20T00:07:02.747Z,1019.92
2019-03-20T00:08:02.668Z,1019.90
2019-03-20T00:09:02.602Z,1019.95
2019-03-20T00:10:02.556Z,1019.95
2019-03-20T00:11:02.497Z,1019.94
2019-03-20T00:12:02.462Z,1019.93
2019-03-20T00:13:02.377Z,1019.91
2019-03-20T00:14:02.322Z,1019.90
2019-03-20T00:15:02.266Z,1019.84
2019-03-20T00:16:02.207Z,1019.83
2019-03-20T00:17:04.042Z,1019.84
2019-03-20T00:18:02.091Z,1019.88
2019-03-20T00:19:02.032Z,1019.91
2019-03-20T00:20:01.985Z,1019.91
2019-03-20T00:21:01.917Z,1019.91
2019-03-20T00:22:01.867Z,1019.99
2019-03-20T00:23:01.830Z,1020.00
2019-03-20T00:24:01.753Z,1020.02
2019-03-20T00:25:01.693Z,1020.06
2019-03-20T00:26:01.640Z,1020.08
2019-03-20T00:27:01.584Z,1020.07
2019-03-20T00:28:01.548Z,1020.02
2019-03-20T00:29:01.462Z,1020.01
2019-03-20T00:30:01.407Z,1020.01
2019-03-20T00:31:01.356Z,1019.96
2019-03-20T00:32:01.292Z,1019.96
2019-03-20T00:33:01.263Z,1019.93
2019-03-20T00:34:01.177Z,1019.91
2019-03-20T00:35:01.527Z,1019.90
2019-03-20T00:36:01.066Z,1019.86
2019-03-20T00:37:01.012Z,1019.90
2019-03-20T00:38:00.975Z,1019.92
2019-03-20T00:39:00.892Z,1019.89
2019-03-20T00:40:00.834Z,1019.91
2019-03-20T00:41:00.777Z,1019.87
2019-03-20T00:42:00.718Z,1019.89
2019-03-20T00:43:00.687Z,1019.89
2019-03-20T00:44:00.603Z,1019.87
2019-03-20T00:45:00.548Z,1019.87
2019-03-20T00:46:00.489Z,1019.89
2019-03-20T00:47:00.433Z,1019.89
2019-03-20T00:48:00.401Z,1019.88
2019-03-20T00:49:00.320Z,1019.84
2019-03-20T00:50:00.371Z,1019.87
2019-03-20T00:51:00.206Z,1019.86
2019-03-20T00:52:00.156Z,1019.83
2019-03-20T00:53:00.112Z,1019.79
2019-03-20T00:54:00.033Z,1019.80
2019-03-20T00:54:59.974Z,1019.84
2019-03-20T00:55:59.919Z,1019.80
2019-03-20T00:56:59.859Z,1019.75
2019-03-20T00:57:59.827Z,1019.75
2019-03-20T00:58:59.745Z,1019.75
2019-03-20T00:59:59.696Z,1019.76
2019-03-20T01:00:59.629Z,1019.73
2019-03-20T01:01:59.570Z,1019.70
2019-03-20T01:02:59.543Z,1019.73
2019-03-20T01:03:59.459Z,1019.69
2019-03-20T01:04:59.452Z,1019.72
2019-03-20T01:05:59.344Z,1019.73
2019-03-20T01:06:59.297Z,1019.72
2019-03-20T01:07:59.253Z,1019.67
2019-03-20T01:08:59.174Z,1019.70
2019-03-20T01:09:59.119Z,1019.68
2019-03-20T01:10:59.055Z,1019.68
2019-03-20T01:11:59.000Z,1019.68
2019-03-20T01:12:58.967Z,1019.71
2019-03-20T01:13:58.884Z,1019.72
2019-03-20T01:14:58.841Z,1019.75
2019-03-20T01:15:58.777Z,1019.73
2019-03-20T01:16:58.703Z,1019.75
2019-03-20T01:17:58.681Z,1019.73
2019-03-20T01:18:58.598Z,1019.72
2019-03-20T01:19:58.545Z,1019.72
2019-03-20T01:20:58.486Z,1019.74
2019-03-20T01:21:58.424Z,1019.77
2019-03-20T01:22:58.386Z,1019.80
2019-03-20T01:23:58.313Z,1019.76
2019-03-20T01:24:58.252Z,1019.77
2019-03-20T01:25:58.197Z,1019.73
2019-03-20T01:26:58.137Z,1019.75
2019-03-20T01:27:58.105Z,1019.75
2019-03-20T01:28:58.024Z,1019.75
2019-03-20T01:29:57.967Z,1019.77
2019-03-20T01:30:57.909Z,1019.77
2019-03-20T01:31:57.852Z,1019.76
2019-03-20T01:32:57.817Z,1019.72
2019-03-20T01:33:57.737Z,1019.76
2019-03-20T01:34:57.681Z,1019.74
2019-03-20T01:35:57.623Z,1019.73
2019-03-20T01:36:57.566Z,1019.74
2019-03-20T01:37:57.528Z,1019.72
2019-03-20T01:38:57.475Z,1019.77
2019-03-20T01:39:57.409Z,1019.75
2019-03-20T01:40:57.337Z,1019.72
2019-03-20T01:41:57.278Z,1019.70
2019-03-20T01:42:57.260Z,1019.73
2019-03-20T01:43:57.199Z,1019.73
2019-03-20T01:44:57.142Z,1019.73
2019-03-20T01:45:57.044Z,1019.76
2019-03-20T01:46:56.989Z,1019.79
2019-03-20T01:47:56.926Z,1019.76
2019-03-20T01:48:56.903Z,1019.81
2019-03-20T01:49:56.815Z,1019.81
2019-03-20T01:50:56.760Z,1019.87
2019-03-20T01:51:56.700Z,1019.88
2019-03-20T01:52:56.695Z,1019.89
2019-03-20T01:53:56.608Z,1019.88
2019-03-20T01:54:56.540Z,1019.85
2019-03-20T01:55:56.471Z,1019.88
2019-03-20T01:56:56.415Z,1019.91
2019-03-20T01:57:56.356Z,1019.88
2019-03-20T01:58:56.329Z,1019.84
2019-03-20T01:59:56.241Z,1019.82
2019-03-20T02:00:56.186Z,1019.78
2019-03-20T02:01:56.144Z,1019.78
2019-03-20T02:02:56.073Z,1019.77
2019-03-20T02:03:56.047Z,1019.79
2019-03-20T02:04:55.957Z,1019.73
2019-03-20T02:05:55.900Z,1019.76
2019-03-20T02:06:55.834Z,1019.78
2019-03-20T02:07:55.781Z,1019.77
2019-03-20T02:08:55.744Z,1019.78
2019-03-20T02:09:55.672Z,1019.80
2019-03-20T02:10:55.612Z,1019.80
2019-03-20T02:11:55.554Z,1019.79
2019-03-20T02:12:55.492Z,1019.86
2019-03-20T02:13:55.461Z,1019.84
2019-03-20T02:14:55.375Z,1019.85
2019-03-20T02:15:55.323Z,1019.84
2019-03-20T02:16:55.267Z,1019.88
2019-03-20T02:17:55.214Z,1019.85
2019-03-20T02:18:55.172Z,1019.86
2019-03-20T02:19:55.095Z,1019.88
2019-03-20T02:20:55.033Z,1019.91
2019-03-20T02:21:54.983Z,1019.99
2019-03-20T02:22:54.918Z,1019.94
2019-03-20T02:23:54.883Z,1020.01
2019-03-20T02:24:54.803Z,1019.96
2019-03-20T02:25:54.751Z,1019.97
2019-03-20T02:26:54.688Z,1019.95
2019-03-20T02:27:54.629Z,1019.90
2019-03-20T02:28:54.598Z,1019.93
2019-03-20T02:29:54.514Z,1019.91
2019-03-20T02:30:54.461Z,1019.85
2019-03-20T02:31:54.401Z,1019.88
2019-03-20T02:32:54.379Z,1019.92
2019-03-20T02:33:54.315Z,1019.87
2019-03-20T02:34:54.231Z,1019.89
2019-03-20T02:35:54.172Z,1019.89
2019-03-20T02:36:54.116Z,1019.88
2019-03-20T02:37:54.062Z,1019.86
2019-03-20T02:38:54.026Z,1019.89
2019-03-20T02:39:53.938Z,1019.91
2019-03-20T02:40:53.885Z,1019.91
2019-03-20T02:41:53.828Z,1019.93
2019-03-20T02:42:53.778Z,1019.94
2019-03-20T02:43:53.742Z,1019.93
2019-03-20T02:44:53.657Z,1019.94
2019-03-20T02:45:53.602Z,1019.94
2019-03-20T02:46:53.537Z,1019.93
2019-03-20T02:47:53.481Z,1019.92
2019-03-20T02:48:53.446Z,1019.92
2019-03-20T02:49:53.368Z,1019.91
2019-03-20T02:50:53.308Z,1019.90
2019-03-20T02:51:53.250Z,1019.93
2019-03-20T02:52:53.190Z,1019.90
2019-03-20T02:53:53.157Z,1019.89
2019-03-20T02:54:53.078Z,1019.96
2019-03-20T02:55:53.020Z,1019.92
2019-03-20T02:56:52.960Z,1019.93
2019-03-20T02:57:52.913Z,1019.89
2019-03-20T02:58:52.874Z,1019.89
2019-03-20T02:59:52.810Z,1019.91
2019-03-20T03:00:52.731Z,1019.91
2019-03-20T03:01:52.679Z,1019.90
2019-03-20T03:02:52.615Z,1019.87
2019-03-20T03:03:52.556Z,1019.90
2019-03-20T03:04:52.528Z,1019.89
2019-03-20T03:06:05.667Z,1019.90
2019-03-20T03:06:52.396Z,1019.89
2019-03-20T03:07:52.327Z,1019.87
2019-03-20T03:08:52.278Z,1019.83
2019-03-20T03:09:52.236Z,1019.82
2019-03-20T03:10:55.510Z,1019.77
2019-03-20T03:11:52.095Z,1019.81
2019-03-20T03:12:52.039Z,1019.82
2019-03-20T03:13:51.982Z,1019.82
2019-03-20T03:14:51.966Z,1019.83
2019-03-20T03:15:51.866Z,1019.84
2019-03-20T03:16:51.808Z,1019.84
2019-03-20T03:17:51.760Z,1019.85
2019-03-20T03:18:51.697Z,1019.86
2019-03-20T03:19:51.659Z,1019.84
2019-03-20T03:22:23.170Z,1019.86
2019-03-20T03:23:23.100Z,1019.89
2019-03-20T03:24:23.080Z,1019.88
2019-03-20T03:25:22.985Z,1019.87
2019-03-20T03:26:22.932Z,1019.89
2019-03-20T03:27:22.870Z,1019.86
2019-03-20T03:28:22.810Z,1019.88
2019-03-20T03:29:22.778Z,1019.84
2019-03-20T03:30:22.697Z,1019.86
2019-03-20T03:31:22.637Z,1019.87
2019-03-20T03:32:22.589Z,1019.88
2019-03-20T03:33:22.523Z,1019.88
2019-03-20T03:34:22.488Z,1019.89
2019-03-20T03:35:22.407Z,1019.91
2019-03-20T03:36:22.348Z,1019.89
2019-03-20T03:37:22.293Z,1019.91
2019-03-20T03:38:22.233Z,1019.95
2019-03-20T03:39:22.212Z,1019.94
2019-03-20T03:40:22.136Z,1019.96
2019-03-20T03:41:22.062Z,1019.96
2019-03-20T03:42:22.018Z,1019.99
2019-03-20T03:43:24.289Z,1019.95
2019-03-20T03:44:21.913Z,1019.94
2019-03-20T03:45:21.831Z,1019.91
2019-03-20T03:46:21.770Z,1019.95
2019-03-20T03:47:21.719Z,1019.93
2019-03-20T03:48:21.657Z,1019.89
2019-03-20T03:49:21.631Z,1019.88
2019-03-20T03:50:21.542Z,1019.91
2019-03-20T03:51:21.485Z,1019.90
2019-03-20T03:52:21.454Z,1019.90
2019-03-20T03:53:21.372Z,1019.95
2019-03-20T03:54:21.310Z,1019.96
2019-03-20T03:55:21.277Z,1019.98
2019-03-20T03:56:21.205Z,1019.95
2019-03-20T03:57:22.287Z,1019.95
2019-03-20T03:58:26.809Z,1019.95
2019-03-20T03:59:21.024Z,1019.97
2019-03-20T04:00:20.987Z,1019.99
2019-03-20T04:01:20.903Z,1019.98
2019-03-20T04:02:20.846Z,1020.00
2019-03-20T04:03:20.788Z,1020.03
2019-03-20T04:04:20.734Z,1019.95
2019-03-20T04:05:20.711Z,1019.95
2019-03-20T04:06:34.576Z,1019.93
2019-03-20T04:07:23.499Z,1019.92
2019-03-20T04:08:20.506Z,1019.93
2019-03-20T04:09:20.442Z,1019.96
2019-03-20T04:10:20.414Z,1019.93
2019-03-20T04:11:20.328Z,1019.96
2019-03-20T04:12:20.273Z,1019.93
2019-03-20T04:13:20.206Z,1019.95
2019-03-20T04:14:20.168Z,1019.96
2019-03-20T04:15:20.130Z,1019.95
2019-03-20T04:16:20.043Z,1019.96
2019-03-20T04:17:19.983Z,1019.95
2019-03-20T04:18:19.921Z,1019.94
2019-03-20T04:19:19.862Z,1019.97
2019-03-20T04:20:19.835Z,1019.96
2019-03-20T04:21:19.750Z,1019.95
2019-03-20T04:22:19.688Z,1019.95
2019-03-20T04:23:19.634Z,1019.96
2019-03-20T04:24:19.586Z,1019.92
2019-03-20T04:25:19.549Z,1019.98
2019-03-20T04:26:19.468Z,1019.92
2019-03-20T04:27:19.406Z,1019.98
2019-03-20T04:28:19.345Z,1019.96
2019-03-20T04:29:19.313Z,1019.93
2019-03-20T04:30:19.254Z,1019.96
2019-03-20T04:31:19.170Z,1019.95
2019-03-20T04:32:19.109Z,1019.96
2019-03-20T04:33:19.053Z,1019.96
2019-03-20T04:34:18.994Z,1020.00
2019-03-20T04:35:18.969Z,1019.99
2019-03-20T04:36:18.876Z,1019.98
2019-03-20T04:37:18.859Z,1020.00
2019-03-20T04:38:18.766Z,1020.00
2019-03-20T04:39:18.703Z,1020.00
2019-03-20T04:40:18.675Z,1019.98
2019-03-20T04:41:18.586Z,1020.00
2019-03-20T04:42:18.547Z,1020.06
2019-03-20T04:43:18.473Z,1020.03
2019-03-20T04:44:18.412Z,1020.02
2019-03-20T04:45:18.382Z,1020.02
2019-03-20T04:46:18.297Z,1020.02
2019-03-20T04:47:18.240Z,1020.05
2019-03-20T04:48:18.182Z,1020.05
2019-03-20T04:49:18.125Z,1020.03
2019-03-20T04:50:18.099Z,1020.07
2019-03-20T04:51:18.009Z,1020.06
2019-03-20T04:52:17.948Z,1020.08
2019-03-20T04:53:17.894Z,1020.07
2019-03-20T04:54:17.834Z,1020.07
2019-03-20T04:55:17.798Z,1020.04
2019-03-20T04:56:17.719Z,1020.02
2019-03-20T04:57:17.660Z,1019.99
2019-03-20T04:58:17.598Z,1020.01
2019-03-20T04:59:17.546Z,1019.99
2019-03-20T05:00:17.519Z,1019.98
2019-03-20T05:01:17.430Z,1020.01
2019-03-20T05:02:17.372Z,1020.02
2019-03-20T05:03:17.321Z,1020.05
2019-03-20T05:04:17.258Z,1020.05
2019-03-20T05:05:17.221Z,1020.03
2019-03-20T05:06:17.143Z,1020.05
2019-03-20T05:07:17.082Z,1020.06
2019-03-20T05:08:17.023Z,1020.07
2019-03-20T05:09:16.967Z,1020.09
2019-03-20T05:10:16.936Z,1020.10
2019-03-20T05:11:16.849Z,1020.11
2019-03-20T05:12:16.793Z,1020.10
2019-03-20T05:13:16.758Z,1020.09
2019-03-20T05:14:16.676Z,1020.11
2019-03-20T05:15:16.617Z,1020.10
2019-03-20T05:16:16.583Z,1020.15
2019-03-20T05:17:16.501Z,1020.11
2019-03-20T05:18:16.448Z,1020.12
2019-03-20T05:19:16.385Z,1020.07
2019-03-20T05:20:16.374Z,1020.11
2019-03-20T05:21:16.294Z,1020.11
2019-03-20T05:22:16.211Z,1020.07
2019-03-20T05:23:16.155Z,1020.11
2019-03-20T05:24:16.097Z,1020.11
2019-03-20T05:25:16.039Z,1020.16
2019-03-20T05:26:16.002Z,1020.15
2019-03-20T05:27:15.927Z,1020.17
2019-03-20T05:28:15.867Z,1020.20
2019-03-20T05:29:15.864Z,1020.26
2019-03-20T05:30:15.749Z,1020.23
2019-03-20T05:31:15.717Z,1020.26
2019-03-20T05:32:15.633Z,1020.23
2019-03-20T05:33:15.578Z,1020.29
2019-03-20T05:34:15.530Z,1020.28
2019-03-20T05:35:15.460Z,1020.28
2019-03-20T05:36:15.428Z,1020.27
2019-03-20T05:37:15.354Z,1020.32
2019-03-20T05:38:15.301Z,1020.31
2019-03-20T05:39:15.923Z,1020.33
2019-03-20T05:40:15.174Z,1020.39
2019-03-20T05:41:15.139Z,1020.34
2019-03-20T05:42:15.057Z,1020.36
2019-03-20T05:43:15.006Z,1020.37
2019-03-20T05:44:14.941Z,1020.38
2019-03-20T05:45:14.885Z,1020.41
2019-03-20T05:46:14.846Z,1020.40
2019-03-20T05:47:14.767Z,1020.41
2019-03-20T05:48:14.707Z,1020.39
2019-03-20T05:49:14.648Z,1020.41
2019-03-20T05:50:14.603Z,1020.39
2019-03-20T05:51:14.559Z,1020.39
2019-03-20T05:52:14.478Z,1020.42
2019-03-20T05:53:14.419Z,1020.42
2019-03-20T05:54:14.358Z,1020.43
2019-03-20T05:55:14.303Z,1020.44
2019-03-20T05:56:14.267Z,1020.46
2019-03-20T05:57:14.193Z,1020.47
2019-03-20T05:58:14.129Z,1020.49
2019-03-20T05:59:14.079Z,1020.55
2019-03-20T06:00:14.014Z,1020.55
2019-03-20T06:01:13.978Z,1020.54
2019-03-20T06:02:13.899Z,1020.56
2019-03-20T06:03:13.840Z,1020.57
2019-03-20T06:04:13.785Z,1020.59
2019-03-20T06:05:13.725Z,1020.61
2019-03-20T06:06:13.691Z,1020.64
2019-03-20T06:07:21.007Z,1020.66
2019-03-20T06:08:13.552Z,1020.68
2019-03-20T06:09:13.497Z,1020.68
2019-03-20T06:10:13.438Z,1020.69
2019-03-20T06:11:13.549Z,1020.70
2019-03-20T06:12:13.519Z,1020.70
2019-03-20T06:13:13.262Z,1020.70
2019-03-20T06:14:13.206Z,1020.74
2019-03-20T06:15:13.148Z,1020.73
2019-03-20T06:16:13.111Z,1020.73
2019-03-20T06:17:13.033Z,1020.72
2019-03-20T06:18:12.974Z,1020.67
2019-03-20T06:19:12.914Z,1020.72
2019-03-20T06:20:12.860Z,1020.71
2019-03-20T06:21:12.827Z,1020.71
2019-03-20T06:22:12.743Z,1020.71
2019-03-20T06:23:12.685Z,1020.73
2019-03-20T06:24:12.632Z,1020.68
2019-03-20T06:25:12.569Z,1020.75
2019-03-20T06:26:12.542Z,1020.69
2019-03-20T06:27:12.455Z,1020.77
2019-03-20T06:28:12.407Z,1020.75
2019-03-20T06:29:12.342Z,1020.79
2019-03-20T06:30:12.280Z,1020.79
2019-03-20T06:31:12.249Z,1020.81
2019-03-20T06:32:12.170Z,1020.79
2019-03-20T06:33:12.110Z,1020.81
2019-03-20T06:34:12.051Z,1020.76
2019-03-20T06:35:12.004Z,1020.77
2019-03-20T06:36:11.960Z,1020.72
2019-03-20T06:37:11.904Z,1020.76
2019-03-20T06:38:11.830Z,1020.79
2019-03-20T06:39:11.766Z,1020.77
2019-03-20T06:40:11.706Z,1020.77
2019-03-20T06:41:11.651Z,1020.71
2019-03-20T06:42:11.620Z,1020.75
2019-03-20T06:43:11.538Z,1020.76
2019-03-20T06:44:11.528Z,1020.72
2019-03-20T06:45:11.421Z,1020.70
2019-03-20T06:46:11.361Z,1020.68
2019-03-20T06:47:11.330Z,1020.68
2019-03-20T06:48:11.246Z,1020.65
2019-03-20T06:49:11.192Z,1020.67
2019-03-20T06:50:11.133Z,1020.72
2019-03-20T06:51:11.077Z,1020.70
2019-03-20T06:52:11.055Z,1020.76
2019-03-20T06:53:10.962Z,1020.75
2019-03-20T06:54:10.907Z,1020.77
2019-03-20T06:55:10.848Z,1020.81
2019-03-20T06:56:10.792Z,1020.84
2019-03-20T06:57:10.758Z,1020.92
2019-03-20T06:58:10.681Z,1020.90
2019-03-20T06:59:10.622Z,1020.93
2019-03-20T07:00:10.567Z,1020.95
2019-03-20T07:01:10.515Z,1020.97
2019-03-20T07:02:10.476Z,1020.95
2019-03-20T07:03:10.396Z,1020.93
2019-03-20T07:04:10.337Z,1020.95
2019-03-20T07:05:10.285Z,1020.95
2019-03-20T07:06:10.229Z,1020.93
2019-03-20T07:07:10.195Z,1020.93
2019-03-20T07:08:10.115Z,1020.94
2019-03-20T07:09:10.060Z,1020.91
2019-03-20T07:10:10.000Z,1020.95
2019-03-20T07:11:09.949Z,1020.94
2019-03-20T07:12:09.922Z,1020.91
2019-03-20T07:13:09.835Z,1020.92
2019-03-20T07:14:09.779Z,1020.95
2019-03-20T07:15:09.725Z,1020.94
2019-03-20T07:16:09.669Z,1021.00
2019-03-20T07:17:09.636Z,1020.97
2019-03-20T07:18:09.557Z,1020.98
2019-03-20T07:19:09.498Z,1021.00
2019-03-20T07:20:09.442Z,1020.99
2019-03-20T07:21:09.388Z,1021.04
2019-03-20T07:22:09.356Z,1021.03
2019-03-20T07:23:09.276Z,1021.04
2019-03-20T07:24:09.223Z,1021.06
2019-03-20T07:25:09.169Z,1021.08
2019-03-20T07:26:09.113Z,1021.07
2019-03-20T07:27:09.084Z,1021.04
2019-03-20T07:28:09.003Z,1021.03
2019-03-20T07:29:08.944Z,1021.05
2019-03-20T07:30:08.888Z,1020.99
2019-03-20T07:31:15.448Z,1021.04
2019-03-20T07:32:08.809Z,1021.02
2019-03-20T07:33:08.722Z,1021.04
2019-03-20T07:34:08.671Z,1021.04
2019-03-20T07:35:08.615Z,1021.06
2019-03-20T07:36:08.560Z,1021.07
2019-03-20T07:37:08.528Z,1021.08
2019-03-20T07:38:08.450Z,1021.09
2019-03-20T07:39:08.400Z,1021.12
2019-03-20T07:40:08.343Z,1021.17
2019-03-20T07:41:08.288Z,1021.13
2019-03-20T07:42:08.255Z,1021.16
2019-03-20T07:43:09.380Z,1021.13
2019-03-20T07:44:08.122Z,1021.13
2019-03-20T07:45:08.065Z,1021.16
2019-03-20T07:46:08.010Z,1021.12
2019-03-20T07:47:07.983Z,1021.12
2019-03-20T07:48:07.902Z,1021.15
2019-03-20T07:49:07.844Z,1021.16
2019-03-20T07:50:07.792Z,1021.12
2019-03-20T07:51:07.738Z,1021.16
2019-03-20T07:52:07.688Z,1021.15
2019-03-20T07:53:07.658Z,1021.18
2019-03-20T07:54:07.577Z,1021.22
2019-03-20T07:55:07.520Z,1021.24
2019-03-20T07:56:07.468Z,1021.26
2019-03-20T07:57:07.414Z,1021.26
2019-03-20T07:58:07.378Z,1021.23
2019-03-20T07:59:07.305Z,1021.28
2019-03-20T08:00:07.248Z,1021.31
2019-03-20T08:01:07.190Z,1021.37
2019-03-20T08:02:07.162Z,1021.41
2019-03-20T08:03:07.107Z,1021.40
2019-03-20T08:04:07.039Z,1021.36
2019-03-20T08:05:06.973Z,1021.39
2019-03-20T08:06:06.917Z,1021.40
2019-03-20T08:07:06.867Z,1021.42
2019-03-20T08:08:07.874Z,1021.44
2019-03-20T08:09:06.760Z,1021.41
2019-03-20T08:10:06.704Z,1021.37
2019-03-20T08:11:06.668Z,1021.37
2019-03-20T08:12:06.593Z,1021.45
2019-03-20T08:13:06.562Z,1021.43
2019-03-20T08:14:06.487Z,1021.45
2019-03-20T08:15:06.431Z,1021.44
2019-03-20T08:16:06.381Z,1021.46
2019-03-20T08:17:06.326Z,1021.51
2019-03-20T08:18:06.294Z,1021.54
2019-03-20T08:19:06.213Z,1021.49
2019-03-20T08:20:06.175Z,1021.54
2019-03-20T08:21:06.114Z,1021.53
2019-03-20T08:22:06.054Z,1021.53
2019-03-20T08:23:06.024Z,1021.53
2019-03-20T08:24:05.941Z,1021.58
2019-03-20T08:25:05.889Z,1021.54
2019-03-20T08:26:05.837Z,1021.53
2019-03-20T08:27:05.782Z,1021.52
2019-03-20T08:28:05.756Z,1021.51
2019-03-20T08:29:05.678Z,1021.52
2019-03-20T08:30:05.621Z,1021.50
2019-03-20T08:31:05.565Z,1021.56
2019-03-20T08:32:05.513Z,1021.57
2019-03-20T08:33:05.482Z,1021.61
2019-03-20T08:34:05.402Z,1021.62
2019-03-20T08:35:05.350Z,1021.62
2019-03-20T08:36:05.296Z,1021.58
2019-03-20T08:37:05.246Z,1021.59
2019-03-20T08:38:05.216Z,1021.61
2019-03-20T08:39:05.134Z,1021.62
2019-03-20T08:40:05.083Z,1021.60
2019-03-20T08:41:05.027Z,1021.60
2019-03-20T08:42:04.980Z,1021.63
2019-03-20T08:43:04.944Z,1021.65
2019-03-20T08:44:04.866Z,1021.69
2019-03-20T08:45:04.818Z,1021.70
2019-03-20T08:46:04.758Z,1021.68
2019-03-20T08:47:04.707Z,1021.71
2019-03-20T08:48:04.676Z,1021.73
2019-03-20T08:49:04.641Z,1021.69
2019-03-20T08:50:04.542Z,1021.72
2019-03-20T08:51:04.496Z,1021.77
2019-03-20T08:52:04.440Z,1021.77
2019-03-20T08:53:04.406Z,1021.75
2019-03-20T08:54:04.327Z,1021.70
2019-03-20T08:55:04.280Z,1021.71
2019-03-20T08:56:04.225Z,1021.69
2019-03-20T08:57:04.176Z,1021.71
2019-03-20T08:58:04.145Z,1021.66
2019-03-20T08:59:04.066Z,1021.63
2019-03-20T09:00:04.017Z,1021.63
2019-03-20T09:01:03.959Z,1021.59
2019-03-20T09:02:03.909Z,1021.57
2019-03-20T09:03:03.879Z,1021.58
2019-03-20T09:04:03.800Z,1021.57
2019-03-20T09:05:03.749Z,1021.59
2019-03-20T09:06:03.700Z,1021.57
2019-03-20T09:07:03.690Z,1021.54
2019-03-20T09:08:03.612Z,1021.53
2019-03-20T09:09:03.535Z,1021.53
2019-03-20T09:10:03.485Z,1021.59
2019-03-20T09:11:03.429Z,1021.61
2019-03-20T09:12:03.387Z,1021.63
2019-03-20T09:13:03.346Z,1021.64
2019-03-20T09:14:03.270Z,1021.68
2019-03-20T09:15:03.220Z,1021.73
2019-03-20T09:16:03.164Z,1021.70
2019-03-20T09:17:03.115Z,1021.70
2019-03-20T09:18:03.102Z,1021.71
2019-03-20T09:19:03.006Z,1021.71
2019-03-20T09:20:02.952Z,1021.73
2019-03-20T09:21:10.835Z,1021.71
2019-03-20T09:22:02.848Z,1021.67
2019-03-20T09:23:02.798Z,1021.69
2019-03-20T09:24:02.769Z,1021.72
2019-03-20T09:25:02.693Z,1021.70
2019-03-20T09:26:02.639Z,1021.70
2019-03-20T09:27:02.587Z,1021.71
2019-03-20T09:28:02.538Z,1021.64
2019-03-20T09:29:02.508Z,1021.65
2019-03-20T09:30:02.431Z,1021.65
2019-03-20T09:31:02.379Z,1021.63
2019-03-20T09:32:02.327Z,1021.55
2019-03-20T09:33:02.271Z,1021.57
2019-03-20T09:34:02.375Z,1021.56
2019-03-20T09:35:02.169Z,1021.56
2019-03-20T09:36:02.116Z,1021.58
2019-03-20T09:37:02.061Z,1021.62
2019-03-20T09:38:02.011Z,1021.65
2019-03-20T09:39:01.984Z,1021.62
2019-03-20T09:40:01.908Z,1021.61
2019-03-20T09:41:01.855Z,1021.57
2019-03-20T09:42:01.800Z,1021.57
2019-03-20T09:43:01.748Z,1021.58
2019-03-20T09:44:01.721Z,1021.58
2019-03-20T09:45:01.647Z,1021.61
2019-03-20T09:46:01.597Z,1021.60
2019-03-20T09:47:01.541Z,1021.66
2019-03-20T09:48:01.502Z,1021.59
2019-03-20T09:49:01.475Z,1021.68
2019-03-20T09:50:01.374Z,1021.63
2019-03-20T09:51:01.335Z,1021.62
2019-03-20T09:52:01.282Z,1021.60
2019-03-20T09:53:01.236Z,1021.64
2019-03-20T09:54:01.212Z,1021.64
2019-03-20T09:55:01.129Z,1021.59
2019-03-20T09:56:01.076Z,1021.62
2019-03-20T09:57:01.026Z,1021.59
2019-03-20T09:58:10.945Z,1021.58
2019-03-20T09:59:00.947Z,1021.53
2019-03-20T10:00:00.871Z,1021.60
2019-03-20T10:01:00.817Z,1021.61
2019-03-20T10:02:02.855Z,1021.56
2019-03-20T10:03:00.716Z,1021.50
2019-03-20T10:04:00.693Z,1021.52
2019-03-20T10:05:00.622Z,1021.50
2019-03-20T10:06:00.565Z,1021.49
2019-03-20T10:07:00.515Z,1021.53
2019-03-20T10:08:00.462Z,1021.52
2019-03-20T10:09:01.993Z,1021.50
2019-03-20T10:10:00.363Z,1021.49
2019-03-20T10:11:00.309Z,1021.51
2019-03-20T10:12:00.263Z,1021.53
2019-03-20T10:13:00.214Z,1021.51
2019-03-20T10:14:00.184Z,1021.51
2019-03-20T10:15:00.301Z,1021.54
2019-03-20T10:16:00.058Z,1021.56
2019-03-20T10:17:00.009Z,1021.53
2019-03-20T10:17:59.958Z,1021.57
2019-03-20T10:18:59.930Z,1021.57
2019-03-20T10:19:59.861Z,1021.58
2019-03-20T10:20:59.808Z,1021.57
2019-03-20T10:21:59.751Z,1021.63
2019-03-20T10:22:59.704Z,1021.60
2019-03-20T10:23:59.679Z,1021.58
2019-03-20T10:24:59.608Z,1021.57
2019-03-20T10:25:59.554Z,1021.57
2019-03-20T10:26:59.504Z,1021.57
2019-03-20T10:27:59.457Z,1021.57
2019-03-20T10:28:59.431Z,1021.55
2019-03-20T10:29:59.355Z,1021.53
2019-03-20T10:30:59.304Z,1021.52
2019-03-20T10:31:59.263Z,1021.57
2019-03-20T10:32:59.203Z,1021.55
2019-03-20T10:33:59.172Z,1021.56
2019-03-20T10:34:59.100Z,1021.58
2019-03-20T10:35:59.055Z,1021.57
2019-03-20T10:36:58.997Z,1021.58
2019-03-20T10:37:58.946Z,1021.57
2019-03-20T10:39:06.379Z,1021.62
2019-03-20T10:39:58.843Z,1021.62
2019-03-20T10:40:58.796Z,1021.57
2019-03-20T10:41:58.745Z,1021.56
2019-03-20T10:42:58.692Z,1021.56
2019-03-20T10:43:58.669Z,1021.54
2019-03-20T10:44:58.594Z,1021.54
2019-03-20T10:45:58.547Z,1021.54
2019-03-20T10:46:58.497Z,1021.59
2019-03-20T10:47:58.448Z,1021.55
2019-03-20T10:48:58.415Z,1021.58
2019-03-20T10:49:58.357Z,1021.63
2019-03-20T10:50:58.295Z,1021.56
2019-03-20T10:51:58.257Z,1021.65
2019-03-20T10:52:58.197Z,1021.67
2019-03-20T10:53:58.171Z,1021.68
2019-03-20T10:54:58.089Z,1021.67
2019-03-20T10:55:58.079Z,1021.65
2019-03-20T10:56:57.994Z,1021.71
2019-03-20T10:57:57.959Z,1021.73
2019-03-20T10:58:57.895Z,1021.70
2019-03-20T10:59:57.868Z,1021.72
2019-03-20T11:00:57.797Z,1021.70
2019-03-20T11:01:57.744Z,1021.73
2019-03-20T11:02:57.693Z,1021.75
2019-03-20T11:03:57.646Z,1021.74
2019-03-20T11:04:57.605Z,1021.75
2019-03-20T11:05:57.549Z,1021.69
2019-03-20T11:06:57.500Z,1021.74
2019-03-20T11:07:57.443Z,1021.74
2019-03-20T11:08:57.388Z,1021.73
2019-03-20T11:09:57.370Z,1021.73
2019-03-20T11:10:57.294Z,1021.77
2019-03-20T11:11:57.239Z,1021.78
2019-03-20T11:12:57.196Z,1021.79
2019-03-20T11:13:57.149Z,1021.80
2019-03-20T11:14:57.118Z,1021.84
2019-03-20T11:15:57.072Z,1021.82
2019-03-20T11:16:56.994Z,1021.75
2019-03-20T11:17:56.950Z,1021.76
2019-03-20T11:18:56.895Z,1021.80
2019-03-20T11:19:56.868Z,1021.75
2019-03-20T11:20:56.792Z,1021.79
2019-03-20T11:21:56.741Z,1021.81
2019-03-20T11:22:56.694Z,1021.78
2019-03-20T11:23:56.638Z,1021.77
2019-03-20T11:24:56.616Z,1021.81
2019-03-20T11:25:56.543Z,1021.77
2019-03-20T11:26:56.494Z,1021.81
2019-03-20T11:27:56.429Z,1021.85
2019-03-20T11:28:56.393Z,1021.84
2019-03-20T11:29:56.366Z,1021.84
2019-03-20T11:30:56.295Z,1021.87
2019-03-20T11:31:56.243Z,1021.88
2019-03-20T11:32:56.193Z,1021.87
2019-03-20T11:33:56.140Z,1021.91
2019-03-20T11:34:56.118Z,1021.89
2019-03-20T11:35:56.041Z,1021.87
2019-03-20T11:36:55.994Z,1021.85
2019-03-20T11:37:55.947Z,1021.84
2019-03-20T11:38:55.900Z,1021.88
2019-03-20T11:39:55.869Z,1021.88
2019-03-20T11:40:55.793Z,1021.85
2019-03-20T11:41:55.749Z,1021.91
2019-03-20T11:42:55.694Z,1021.90
2019-03-20T11:43:55.642Z,1021.86
2019-03-20T11:44:55.623Z,1021.81
2019-03-20T11:45:55.541Z,1021.85
2019-03-20T11:46:55.496Z,1021.84
2019-03-20T11:47:55.464Z,1021.85
2019-03-20T11:48:55.395Z,1021.77
2019-03-20T11:49:55.370Z,1021.82
2019-03-20T11:50:55.294Z,1021.86
2019-03-20T11:51:55.247Z,1021.85
2019-03-20T11:52:55.196Z,1021.86
2019-03-20T11:53:55.152Z,1021.83
2019-03-20T11:54:55.122Z,1021.87
2019-03-20T11:55:55.055Z,1021.84
2019-03-20T11:56:54.994Z,1021.85
2019-03-20T11:57:54.958Z,1021.88
2019-03-20T11:58:54.903Z,1021.85
2019-03-20T11:59:54.876Z,1021.86
2019-03-20T12:00:54.800Z,1021.86
2019-03-20T12:01:54.756Z,1021.81
2019-03-20T12:02:54.701Z,1021.84
2019-03-20T12:03:54.646Z,1021.83
2019-03-20T12:04:54.629Z,1021.80
2019-03-20T12:05:54.551Z,1021.83